Time;durP1;ratioP1;P1;durP2;ratioP2;P2;SDS_P1;SDS_P2;PMS_P1;PMS_P2;Temp;Humidity;BMP_temperature;BMP_pressure;BME280_temperature;BME280_humidity;BME280_pressure;Samples;Min_cycle;Max_cycle;Signal;HPM_P1;HPM_P2
2022/10/13 00:00:51;;;;;;;1.63;1.13;;;;;;;15.65;100.00;149970.16;5132840;27;20175;-60
2022/10/13 00:03:18;;;;;;;1.10;1.00;;;;;;;15.65;100.00;149971.44;5132569;27;20183;-62
2022/10/13 00:05:49;;;;;;;1.20;1.20;;;;;;;15.60;100.00;149958.72;5132620;28;20183;-62
2022/10/13 00:08:19;;;;;;;2.17;1.67;;;;;;;15.53;100.00;149941.00;5132638;28;20187;-61
2022/10/13 00:10:48;;;;;;;3.97;1.13;;;;;;;15.46;100.00;149923.13;5134946;27;20203;-60
2022/10/13 00:13:15;;;;;;;1.70;1.60;;;;;;;15.33;100.00;149891.44;5136820;27;20273;-61
2022/10/13 00:15:45;;;;;;;2.43;1.80;;;;;;;15.14;100.00;149841.97;5136942;27;20178;-61
2022/10/13 00:18:12;;;;;;;2.10;1.40;;;;;;;15.09;100.00;149830.53;5136838;27;20274;-61
2022/10/13 00:20:42;;;;;;;1.73;1.43;;;;;;;15.06;100.00;149824.19;5136809;27;20230;-62
2022/10/13 00:23:09;;;;;;;3.23;1.40;;;;;;;15.11;100.00;149834.38;5136779;27;20194;-61
2022/10/13 00:25:40;;;;;;;1.87;1.30;;;;;;;15.09;100.00;149831.81;5136678;27;20379;-61
2022/10/13 00:28:07;;;;;;;4.90;2.00;;;;;;;14.94;100.00;149792.47;5136517;27;20197;-62
2022/10/13 00:30:35;;;;;;;8.73;1.90;;;;;;;15.05;100.00;149821.66;5136429;27;20656;-60
2022/10/13 00:33:03;;;;;;;5.33;2.00;;;;;;;15.11;100.00;149835.59;5136581;27;20193;-62
2022/10/13 00:35:30;;;;;;;2.50;2.30;;;;;;;15.12;100.00;149838.13;5136511;27;20194;-61
2022/10/13 00:37:57;;;;;;;4.47;2.37;;;;;;;15.06;100.00;149824.19;5136666;27;20209;-62
2022/10/13 00:40:24;;;;;;;8.20;2.40;;;;;;;14.90;100.00;149783.59;5136510;27;20195;-61
2022/10/13 00:42:51;;;;;;;4.37;2.53;;;;;;;14.97;100.00;149801.38;5136388;27;20237;-61
2022/10/13 00:45:24;;;;;;;3.43;2.00;;;;;;;14.86;100.00;149773.44;5136545;27;20471;-61
2022/10/13 00:47:55;;;;;;;3.43;1.80;;;;;;;14.76;100.00;149748.13;5136234;27;20189;-61
2022/10/13 00:50:27;;;;;;;8.67;2.60;;;;;;;14.57;100.00;149701.16;5136238;27;20193;-61
2022/10/13 00:52:57;;;;;;;4.60;2.10;;;;;;;14.50;100.00;149682.16;5136329;27;20676;-61
2022/10/13 00:55:27;;;;;;;2.77;1.87;;;;;;;14.37;100.00;149650.47;5136370;27;20210;-61
2022/10/13 00:57:57;;;;;;;4.80;2.00;;;;;;;14.50;100.00;149682.16;5136282;27;20639;-62
2022/10/13 01:00:25;;;;;;;2.30;1.90;;;;;;;14.55;100.00;149694.84;5136391;27;20266;-62
2022/10/13 01:02:52;;;;;;;2.33;1.57;;;;;;;14.56;100.00;149697.34;5136352;27;20621;-61
2022/10/13 01:05:20;;;;;;;4.07;1.63;;;;;;;14.55;100.00;149694.84;5135873;27;20182;-61
2022/10/13 01:07:49;;;;;;;1.67;1.57;;;;;;;14.56;100.00;149697.34;5135833;27;20218;-61
2022/10/13 01:10:25;;;;;;;6.30;1.87;;;;;;;14.54;100.00;149693.59;5135779;27;20183;-60
2022/10/13 01:13:00;;;;;;;1.90;1.60;;;;;;;14.60;100.00;149707.50;5135802;27;20213;-59
2022/10/13 01:15:33;;;;;;;3.20;1.60;;;;;;;14.55;100.00;149694.84;5135706;27;20179;-61
2022/10/13 01:18:13;;;;;;;4.23;2.00;;;;;;;14.57;100.00;149701.16;5135606;27;20187;-60
2022/10/13 01:21:07;;;;;;;3.53;2.37;;;;;;;14.47;100.00;149674.56;5135344;27;20226;-61
2022/10/13 01:24:07;;;;;;;4.90;2.80;;;;;;;14.37;100.00;149649.19;5121350;27;20202;-61
2022/10/13 01:26:59;;;;;;;3.63;2.90;;;;;;;14.40;100.00;149658.06;5135925;27;20269;-62
2022/10/13 01:29:57;;;;;;;3.30;2.67;;;;;;;14.41;100.00;149660.59;5135825;27;20183;-61
2022/10/13 01:32:31;;;;;;;8.90;3.17;;;;;;;14.40;100.00;149656.78;5124619;27;20592;-61
2022/10/13 01:35:07;;;;;;;5.87;2.90;;;;;;;14.44;100.00;149666.94;5135368;27;20196;-62
2022/10/13 01:37:43;;;;;;;2.90;1.23;;;;;;;14.36;100.00;149647.91;5135553;27;20705;-61
2022/10/13 01:40:16;;;;;;;3.50;2.00;;;;;;;14.48;100.00;149678.34;5135521;27;20178;-61
2022/10/13 01:42:49;;;;;;;1.77;1.10;;;;;;;14.52;100.00;149687.22;5117439;27;20183;-60
2022/10/13 01:45:19;;;;;;;1.30;1.20;;;;;;;14.45;100.00;149669.47;5135416;27;20221;-61
2022/10/13 01:47:49;;;;;;;1.07;1.00;;;;;;;14.62;100.00;149712.59;5135305;27;20633;-62
2022/10/13 01:50:18;;;;;;;2.57;1.10;;;;;;;14.45;100.00;149669.47;5134992;27;20183;-62
2022/10/13 01:52:46;;;;;;;0.87;0.87;;;;;;;14.64;100.00;149717.63;5135198;27;20207;-61
2022/10/13 01:55:13;;;;;;;1.83;1.00;;;;;;;14.63;100.00;149715.13;5117147;27;20205;-61
2022/10/13 01:57:42;;;;;;;1.93;1.00;;;;;;;14.50;100.00;149682.16;5134894;27;20189;-62
2022/10/13 02:00:12;;;;;;;4.27;1.10;;;;;;;14.77;100.00;149749.34;5134814;27;20193;-61
2022/10/13 02:02:47;;;;;;;1.30;1.30;;;;;;;14.76;100.00;149746.84;5135180;27;20701;-61
2022/10/13 02:05:25;;;;;;;2.67;1.60;;;;;;;14.88;100.00;149778.53;5134776;27;20269;-62
2022/10/13 02:08:00;;;;;;;1.60;1.00;;;;;;;14.83;100.00;149764.56;5134998;27;20567;-61
2022/10/13 02:10:31;;;;;;;4.00;1.10;;;;;;;14.75;100.00;149745.56;5134985;27;20182;-61
2022/10/13 02:13:01;;;;;;;3.43;0.80;;;;;;;14.72;100.00;149737.97;5134711;27;20210;-61
2022/10/13 02:15:33;;;;;;;1.77;1.67;;;;;;;14.75;100.00;149744.28;5134988;27;20621;-61
2022/10/13 02:18:02;;;;;;;3.77;2.03;;;;;;;14.74;100.00;149741.75;5134935;27;20645;-62
2022/10/13 02:20:31;;;;;;;1.20;1.10;;;;;;;14.84;100.00;149768.41;5134459;27;20222;-61
2022/10/13 02:23:04;;;;;;;1.50;1.40;;;;;;;14.81;100.00;149760.75;5134604;27;20179;-61
2022/10/13 02:25:34;;;;;;;4.97;1.70;;;;;;;14.76;100.00;149748.13;5134535;27;20186;-62
2022/10/13 02:28:02;;;;;;;2.80;1.60;;;;;;;14.78;100.00;149753.16;5134292;27;20183;-61
2022/10/13 02:30:32;;;;;;;4.20;1.90;;;;;;;14.88;100.00;149778.53;5134556;27;20553;-62
2022/10/13 02:32:59;;;;;;;3.13;1.83;;;;;;;14.86;100.00;149772.19;5133644;27;20707;-61
2022/10/13 02:35:26;;;;;;;1.70;1.60;;;;;;;14.81;100.00;149760.75;5134336;27;20198;-60
2022/10/13 02:37:54;;;;;;;3.13;1.67;;;;;;;14.77;100.00;149750.63;5134116;27;20185;-61
2022/10/13 02:40:21;;;;;;;2.10;1.90;;;;;;;14.60;100.00;149707.50;5134246;27;20179;-61
2022/10/13 02:42:48;;;;;;;5.77;2.00;;;;;;;14.40;100.00;149656.78;5134394;27;20528;-61
2022/10/13 02:45:15;;;;;;;2.20;1.43;;;;;;;14.52;100.00;149687.22;5134532;27;20183;-61
2022/10/13 02:47:41;;;;;;;2.30;1.63;;;;;;;14.42;100.00;149661.88;5134084;27;20193;-61
2022/10/13 02:50:09;;;;;;;1.40;1.30;;;;;;;14.29;100.00;149628.88;5134107;27;20196;-64
2022/10/13 02:52:36;;;;;;;10.37;2.60;;;;;;;14.22;100.00;149612.34;5133841;27;20207;-61
2022/10/13 02:55:06;;;;;;;5.40;2.87;;;;;;;13.95;100.00;149545.22;5133804;27;20196;-61
2022/10/13 02:57:33;;;;;;;8.53;2.53;;;;;;;14.07;100.00;149574.34;5133875;27;20183;-61
2022/10/13 03:00:00;;;;;;;9.43;2.70;;;;;;;14.04;100.00;149568.03;5134269;27;20576;-61
2022/10/13 03:02:27;;;;;;;9.90;2.43;;;;;;;14.09;100.00;149579.41;5134519;27;20178;-61
2022/10/13 03:04:54;;;;;;;3.17;1.67;;;;;;;13.97;100.00;149550.25;5134127;27;20178;-61
2022/10/13 03:07:21;;;;;;;3.33;2.07;;;;;;;13.95;100.00;149543.94;5134210;27;20182;-61
2022/10/13 03:09:48;;;;;;;4.20;1.87;;;;;;;13.87;100.00;149523.66;5134093;27;20601;-60
2022/10/13 03:12:17;;;;;;;3.13;1.70;;;;;;;13.88;100.00;149526.16;5133318;27;20199;-63
2022/10/13 03:14:43;;;;;;;1.87;1.77;;;;;;;13.76;100.00;149495.75;5115325;27;20186;-61
2022/10/13 03:17:10;;;;;;;4.40;1.63;;;;;;;13.79;100.00;149504.63;5133675;27;20191;-61
2022/10/13 03:19:37;;;;;;;3.53;2.43;;;;;;;13.65;100.00;149470.44;5133012;27;20195;-62
2022/10/13 03:22:04;;;;;;;4.83;1.87;;;;;;;13.63;100.00;149464.09;5133399;27;20649;-61
2022/10/13 03:24:31;;;;;;;3.00;1.97;;;;;;;13.74;100.00;149492.00;5133239;27;20183;-61
2022/10/13 03:26:58;;;;;;;3.23;2.20;;;;;;;13.80;100.00;149507.16;5133082;27;20189;-61
2022/10/13 03:29:27;;;;;;;1.90;1.80;;;;;;;13.80;100.00;149507.16;5133109;27;20183;-61
2022/10/13 03:31:54;;;;;;;4.27;1.77;;;;;;;13.88;100.00;149527.44;5133001;27;20206;-61
2022/10/13 03:34:21;;;;;;;12.47;3.17;;;;;;;13.86;100.00;149521.13;5133037;27;20234;-61
2022/10/13 03:36:48;;;;;;;8.50;2.50;;;;;;;13.93;100.00;149540.13;5133284;27;20205;-61
2022/10/13 03:39:15;;;;;;;7.60;3.33;;;;;;;13.99;100.00;149555.34;5133244;27;20564;-61
2022/10/13 03:41:42;;;;;;;16.87;3.40;;;;;;;13.94;100.00;149542.66;5132925;27;20270;-61
2022/10/13 03:44:12;;;;;;;3.50;2.10;;;;;;;13.95;100.00;149545.22;5132806;27;20186;-61
2022/10/13 03:46:40;;;;;;;5.37;2.07;;;;;;;13.82;100.00;149512.25;5133167;27;20209;-61
2022/10/13 03:49:07;;;;;;;9.30;2.40;;;;;;;13.67;100.00;149474.22;5133043;27;20233;-60
2022/10/13 03:51:34;;;;;;;4.50;2.00;;;;;;;13.80;100.00;149505.88;5132777;27;20183;-61
2022/10/13 03:54:01;;;;;;;6.03;2.03;;;;;;;13.75;100.00;149494.47;5133024;27;20183;-61
2022/10/13 03:56:28;;;;;;;4.40;1.93;;;;;;;13.78;100.00;149502.13;5133052;27;20525;-61
2022/10/13 03:58:57;;;;;;;7.37;2.50;;;;;;;13.87;100.00;149524.94;5132872;27;20215;-61
2022/10/13 04:01:26;;;;;;;5.07;3.10;;;;;;;13.86;100.00;149521.13;5132990;27;20360;-60
2022/10/13 04:03:56;;;;;;;12.77;3.30;;;;;;;13.78;100.00;149500.84;5132725;27;20210;-64
2022/10/13 04:06:25;;;;;;;5.13;3.20;;;;;;;13.75;100.00;149494.47;5132650;28;20226;-61
2022/10/13 04:08:52;;;;;;;9.57;3.77;;;;;;;13.70;100.00;149481.84;5132846;28;20629;-61
2022/10/13 04:11:19;;;;;;;8.30;3.77;;;;;;;13.54;100.00;149442.53;5132923;28;20191;-61
2022/10/13 04:13:47;;;;;;;11.87;8.57;;;;;;;13.71;100.00;149484.34;5132463;28;20202;-61
2022/10/13 04:16:16;;;;;;;28.00;13.30;;;;;;;13.59;100.00;149453.94;5132457;28;20191;-62
2022/10/13 04:18:44;;;;;;;19.30;12.53;;;;;;;13.47;100.00;149423.53;5132710;28;20668;-61
2022/10/13 04:21:13;;;;;;;32.30;13.30;;;;;;;13.68;100.00;145516.56;5132551;28;20226;-59
2022/10/13 04:23:40;;;;;;;31.07;14.37;;;;;;;13.58;100.00;144947.50;5132927;28;20517;-61
2022/10/13 04:26:07;;;;;;;30.87;12.53;;;;;;;13.48;100.00;140038.78;5132802;28;20605;-61
2022/10/13 04:28:34;;;;;;;26.70;11.17;;;;;;;13.59;100.00;135658.91;5132766;28;20191;-62
2022/10/13 04:31:01;;;;;;;58.57;12.10;;;;;;;13.55;100.00;131820.38;5132703;28;20605;-61
2022/10/13 04:33:28;;;;;;;28.50;11.47;;;;;;;13.31;100.00;130537.97;5132699;28;20690;-62
2022/10/13 04:35:56;;;;;;;28.87;11.37;;;;;;;13.25;100.00;126167.78;5132409;28;20189;-61
2022/10/13 04:38:24;;;;;;;32.57;12.23;;;;;;;12.81;100.00;111649.16;5132286;28;20187;-61
2022/10/13 04:40:51;;;;;;;47.47;11.90;;;;;;;13.16;100.00;105183.59;5132318;28;20266;-62
2022/10/13 04:43:18;;;;;;;55.27;15.17;;;;;;;13.25;100.00;103389.81;5132560;28;20687;-61
2022/10/13 04:45:45;;;;;;;57.27;14.50;;;;;;;13.33;100.00;103758.06;5132608;28;20651;-61
2022/10/13 04:48:12;;;;;;;53.87;16.23;;;;;;;13.27;100.00;104004.34;5132189;28;20186;-61
2022/10/13 04:50:38;;;;;;;65.63;15.83;;;;;;;13.32;100.00;107444.22;5132262;28;20267;-61
2022/10/13 04:53:06;;;;;;;65.83;15.53;;;;;;;13.57;100.00;107748.81;5132147;28;20199;-60
2022/10/13 04:55:36;;;;;;;72.73;15.40;;;;;;;14.03;100.00;111443.84;5114256;27;20586;-61
2022/10/13 04:58:03;;;;;;;41.93;11.10;;;;;;;14.46;100.00;140241.69;5136272;27;20202;-61
2022/10/13 05:00:30;;;;;;;31.53;9.03;;;;;;;14.81;100.00;149760.75;5136315;27;20235;-61
2022/10/13 05:02:57;;;;;;;13.87;6.67;;;;;;;15.05;100.00;149820.41;5136399;27;20698;-63
2022/10/13 05:05:24;;;;;;;14.47;5.20;;;;;;;15.16;100.00;149847.00;5136339;27;20576;-62
2022/10/13 05:07:51;;;;;;;21.10;6.20;;;;;;;15.34;100.00;149893.97;5135841;27;20183;-61
2022/10/13 05:10:18;;;;;;;5.37;4.67;;;;;;;15.58;100.00;149953.63;5135733;27;20282;-63
2022/10/13 05:12:47;;;;;;;39.17;7.40;;;;;;;15.87;100.00;150027.25;5136228;27;20222;-64
2022/10/13 05:15:13;;;;;;;25.23;6.33;;;;;;;16.09;100.00;150081.81;5135873;27;20226;-63
2022/10/13 05:17:40;;;;;;;10.23;5.07;;;;;;;16.32;100.00;150140.25;5135757;27;20189;-64
2022/10/13 05:20:09;;;;;;;13.43;4.13;;;;;;;16.48;100.00;150178.31;5136169;27;20232;-64
2022/10/13 05:22:36;;;;;;;8.73;3.77;;;;;;;16.54;100.00;150194.84;5135950;27;20630;-58
2022/10/13 05:25:04;;;;;;;7.37;4.77;;;;;;;16.67;100.00;150226.66;5135540;27;20182;-57
2022/10/13 05:27:31;;;;;;;6.10;4.83;;;;;;;16.72;100.00;150240.59;5135831;27;20187;-64
2022/10/13 05:29:59;;;;;;;8.23;5.30;;;;;;;17.10;100.00;150334.63;5135846;27;20286;-64
2022/10/13 05:32:26;;;;;;;8.67;5.80;;;;;;;17.13;100.00;150342.25;5135757;27;20210;-65
2022/10/13 05:34:53;;;;;;;9.60;5.27;;;;;;;17.41;100.00;150412.09;5135715;27;20183;-63
2022/10/13 05:37:28;;;;;;;8.47;5.63;;;;;;;17.33;100.00;150394.31;5128429;27;20565;-64
2022/10/13 05:40:00;;;;;;;10.40;7.03;;;;;;;17.51;100.00;150437.53;5115327;27;20658;-64
2022/10/13 05:42:41;;;;;;;7.17;6.30;;;;;;;17.87;100.00;150527.78;5115709;28;20184;-63
2022/10/13 05:45:11;;;;;;;6.90;5.30;;;;;;;18.68;100.00;150733.84;5136262;27;20241;-63
2022/10/13 05:47:38;;;;;;;14.57;6.50;;;;;;;19.38;100.00;150908.16;5156574;27;20208;-64
2022/10/13 05:50:08;;;;;;;12.97;6.87;;;;;;;19.84;100.00;151024.00;5156613;27;20186;-64
2022/10/13 05:52:37;;;;;;;11.37;6.50;;;;;;;20.27;100.00;151132.22;5155901;27;20289;-63
2022/10/13 05:55:08;;;;;;;7.60;5.83;;;;;;;20.70;100.00;151240.53;5156021;27;20185;-64
2022/10/13 05:57:39;;;;;;;5.07;4.70;;;;;;;20.79;100.00;151263.47;5156497;27;20192;-66
2022/10/13 06:00:11;;;;;;;9.77;4.60;;;;;;;21.09;100.00;151338.63;5156950;27;20677;-66
2022/10/13 06:02:44;;;;;;;5.47;4.53;;;;;;;21.15;100.00;151353.94;5156512;27;20182;-65
2022/10/13 06:05:14;;;;;;;14.17;5.73;;;;;;;21.61;100.00;151471.16;5158067;27;20192;-65
2022/10/13 06:07:42;;;;;;;12.83;3.83;;;;;;;21.77;100.00;151510.66;5154765;27;20196;-65
2022/10/13 06:10:10;;;;;;;11.30;4.37;;;;;;;22.05;100.00;151580.84;5155325;27;20190;-64
2022/10/13 06:12:40;;;;;;;7.97;4.27;;;;;;;22.01;100.00;151571.94;5155040;27;20640;-64
2022/10/13 06:15:08;;;;;;;16.42;4.13;;;;;;;21.87;100.00;151537.47;5155378;27;20280;-64
2022/10/13 06:17:37;;;;;;;9.83;4.90;;;;;;;21.75;100.00;151505.59;5155447;27;20193;-65
2022/10/13 06:20:06;;;;;;;10.88;4.40;;;;;;;22.05;100.00;151582.13;5155568;27;20688;-65
2022/10/13 06:22:33;;;;;;;10.77;5.03;;;;;;;22.40;100.00;151670.13;5155481;27;20273;-64
2022/10/13 06:25:02;;;;;;;4.20;3.85;;;;;;;22.81;100.00;151773.47;5155480;27;20276;-63
2022/10/13 06:27:31;;;;;;;18.38;7.28;;;;;;;22.97;100.00;151813.00;5155047;27;20188;-61
2022/10/13 06:29:58;;;;;;;4.57;4.05;;;;;;;23.19;98.00;151870.41;5154746;27;20194;-61
2022/10/13 06:32:26;;;;;;;16.25;4.00;;;;;;;23.59;93.77;151970.03;5155755;27;20579;-64
2022/10/13 06:34:54;;;;;;;7.63;4.50;;;;;;;23.47;94.06;151940.63;5155213;27;20190;-64
2022/10/13 06:37:21;;;;;;;7.32;4.20;;;;;;;23.44;94.44;151931.72;5155794;27;20632;-64
2022/10/13 06:39:48;;;;;;;3.75;3.45;;;;;;;23.80;92.78;152022.34;5155335;27;20185;-64
2022/10/13 06:42:17;;;;;;;9.85;4.78;;;;;;;23.75;91.17;152009.56;5155115;27;20182;-64
2022/10/13 06:44:44;;;;;;;14.80;4.60;;;;;;;23.88;90.51;152042.75;5155355;27;20181;-64
2022/10/13 06:47:12;;;;;;;13.25;4.03;;;;;;;23.75;91.65;152009.56;5154755;27;20182;-64
2022/10/13 06:49:39;;;;;;;4.97;3.97;;;;;;;24.22;89.95;152128.34;5154904;27;20641;-64
2022/10/13 06:52:07;;;;;;;8.52;4.25;;;;;;;24.69;85.46;152248.38;5154412;27;20186;-64
2022/10/13 06:54:34;;;;;;;12.63;4.00;;;;;;;25.03;83.23;152334.00;5136432;27;20579;-64
2022/10/13 06:57:01;;;;;;;8.98;4.22;;;;;;;24.80;84.92;152276.47;5135900;27;20194;-64
2022/10/13 06:59:28;;;;;;;11.20;3.20;;;;;;;25.06;81.21;152340.38;5154542;27;20185;-64
2022/10/13 07:01:55;;;;;;;8.73;3.30;;;;;;;25.24;80.28;152386.38;5154990;27;20628;-63
2022/10/13 07:04:22;;;;;;;8.65;2.90;;;;;;;25.81;77.42;152532.09;5154730;27;20184;-63
2022/10/13 07:06:49;;;;;;;25.00;3.55;;;;;;;26.10;75.42;152603.66;5154509;27;20186;-65
2022/10/13 07:09:19;;;;;;;11.35;4.45;;;;;;;25.45;76.29;152441.34;5154054;27;20231;-65
2022/10/13 07:11:46;;;;;;;5.75;3.75;;;;;;;25.75;74.46;152516.78;5154172;27;20619;-64
2022/10/13 07:14:13;;;;;;;1.80;1.58;;;;;;;25.50;73.33;152452.84;5154223;27;20220;-64
2022/10/13 07:16:40;;;;;;;0.82;0.82;;;;;;;24.74;73.12;152261.13;5154479;27;20651;-63
2022/10/13 07:19:07;;;;;;;7.60;2.58;;;;;;;25.37;76.70;152419.63;5154350;27;20208;-64
2022/10/13 07:21:36;;;;;;;10.63;3.67;;;;;;;25.12;77.30;152355.72;5154161;27;20240;-64
2022/10/13 07:24:03;;;;;;;6.07;3.70;;;;;;;25.63;75.13;152486.06;5136083;27;20178;-63
2022/10/13 07:26:32;;;;;;;2.58;1.75;;;;;;;25.85;70.91;152542.31;5154151;27;20193;-64
2022/10/13 07:29:00;;;;;;;5.15;2.17;;;;;;;25.81;69.23;152532.09;5154126;27;20186;-66
2022/10/13 07:31:28;;;;;;;6.97;2.35;;;;;;;26.02;70.11;152583.22;5154118;27;20193;-64
2022/10/13 07:33:56;;;;;;;4.75;3.15;;;;;;;26.46;69.09;152695.78;5153687;27;20202;-63
2022/10/13 07:36:23;;;;;;;8.85;2.05;;;;;;;26.25;67.73;152642.09;5153491;27;20568;-63
2022/10/13 07:38:50;;;;;;;5.25;2.70;;;;;;;26.69;67.79;152754.59;5153739;27;20213;-63
2022/10/13 07:41:20;;;;;;;3.42;2.08;;;;;;;27.04;64.60;152842.88;5153990;27;20585;-64
2022/10/13 07:43:49;;;;;;;5.88;2.15;;;;;;;26.69;67.33;152754.59;5153834;27;20182;-65
2022/10/13 07:46:16;;;;;;;6.32;2.05;;;;;;;26.80;65.54;152782.75;5153909;27;20189;-64
2022/10/13 07:48:43;;;;;;;5.75;2.38;;;;;;;27.09;63.86;152854.41;5154037;27;20637;-62
2022/10/13 07:51:12;;;;;;;3.67;2.15;;;;;;;27.36;62.45;152923.50;5135570;27;20225;-64
2022/10/13 07:53:40;;;;;;;2.28;1.70;;;;;;;27.23;62.60;152890.25;5153418;27;20293;-63
2022/10/13 07:56:12;;;;;;;20.25;3.50;;;;;;;27.32;63.13;152913.28;5153735;27;20186;-64
2022/10/13 07:58:42;;;;;;;3.60;2.47;;;;;;;27.09;62.33;152854.41;5153432;27;20270;-63
2022/10/13 08:01:12;;;;;;;6.32;2.17;;;;;;;26.70;62.22;152757.16;5127467;27;20196;-64
2022/10/13 08:03:40;;;;;;;2.95;1.90;;;;;;;26.52;62.44;152711.09;5112490;28;20187;-64
2022/10/13 08:06:08;;;;;;;1.70;1.60;;;;;;;26.12;64.08;152608.78;5112573;28;20175;-64
2022/10/13 08:08:39;;;;;;;5.68;1.63;;;;;;;26.64;62.71;152741.84;5112547;28;20187;-64
2022/10/13 08:11:07;;;;;;;6.35;1.85;;;;;;;27.09;60.93;152854.41;5112519;28;20195;-64
2022/10/13 08:13:36;;;;;;;7.38;1.60;;;;;;;27.09;61.22;152854.41;5112245;28;20211;-64
2022/10/13 08:16:04;;;;;;;4.45;1.17;;;;;;;27.38;61.06;152928.59;5131373;28;20187;-64
2022/10/13 08:18:33;;;;;;;8.00;2.38;;;;;;;27.51;61.10;152961.91;5132043;28;20185;-63
2022/10/13 08:21:01;;;;;;;3.72;1.77;;;;;;;27.84;58.67;153043.84;5130388;27;20608;-64
2022/10/13 08:23:33;;;;;;;2.75;1.00;;;;;;;28.03;49.60;153092.47;5132568;28;20183;-64
2022/10/13 08:26:00;;;;;;;2.80;1.00;;;;;;;28.05;48.41;153097.59;5114563;28;20215;-67
2022/10/13 08:28:28;;;;;;;0.50;0.50;;;;;;;26.66;48.26;152746.94;5133195;28;20630;-63
2022/10/13 08:30:57;;;;;;;0.60;0.60;;;;;;;26.64;49.51;152740.56;5133705;27;20236;-65
2022/10/13 08:33:26;;;;;;;0.43;0.43;;;;;;;26.72;48.06;152762.28;5137126;27;20286;-64
2022/10/13 08:35:54;;;;;;;0.57;0.55;;;;;;;27.14;48.68;152867.22;5136932;27;20269;-67
2022/10/13 08:38:21;;;;;;;0.43;0.43;;;;;;;27.38;48.38;152927.31;5136929;27;20232;-64
2022/10/13 08:40:49;;;;;;;0.52;0.52;;;;;;;27.59;47.56;152982.38;5136638;27;20661;-63
2022/10/13 08:43:19;;;;;;;11.85;1.15;;;;;;;27.25;48.90;152896.63;5137070;27;20697;-64
2022/10/13 08:45:49;;;;;;;0.80;0.70;;;;;;;26.51;50.55;152708.59;5136163;27;20209;-63
2022/10/13 08:48:19;;;;;;;2.00;0.73;;;;;;;26.24;51.74;152639.50;5135751;27;20260;-63
2022/10/13 08:50:50;;;;;;;0.80;0.80;;;;;;;26.86;49.22;152795.59;5136864;27;20548;-64
2022/10/13 08:53:25;;;;;;;0.65;0.65;;;;;;;25.84;49.04;152538.50;5137114;27;20265;-63
2022/10/13 08:55:56;;;;;;;1.33;0.65;;;;;;;25.67;50.61;152496.34;5135413;27;20262;-63
2022/10/13 08:58:27;;;;;;;8.45;0.90;;;;;;;26.51;51.52;152708.59;5136794;27;20261;-64
2022/10/13 09:01:05;;;;;;;0.68;0.50;;;;;;;25.81;51.46;152530.81;5136836;27;20534;-62
2022/10/13 09:03:38;;;;;;;0.57;0.43;;;;;;;25.04;51.08;152336.53;5136252;27;20179;-64
2022/10/13 09:06:13;;;;;;;1.70;0.68;;;;;;;24.93;54.50;152309.72;5118441;27;20664;-64
2022/10/13 09:08:45;;;;;;;5.63;0.80;;;;;;;26.29;51.74;152652.31;5136880;27;20603;-64
2022/10/13 09:11:13;;;;;;;0.50;0.50;;;;;;;25.39;53.28;152425.97;5136288;27;20195;-64
2022/10/13 09:13:40;;;;;;;0.70;0.70;;;;;;;25.22;55.43;152381.25;5136395;27;20725;-64
2022/10/13 09:16:07;;;;;;;1.02;0.50;;;;;;;24.98;56.53;152321.22;5135608;27;20185;-64
2022/10/13 09:18:36;;;;;;;0.77;0.40;;;;;;;24.93;55.77;152309.72;5135980;27;20549;-63
2022/10/13 09:21:18;;;;;;;1.25;0.52;;;;;;;24.58;57.16;152220.25;5135848;27;20275;-64
2022/10/13 09:23:48;;;;;;;1.42;0.70;;;;;;;24.41;57.69;152176.84;5136250;27;20200;-64
2022/10/13 09:26:19;;;;;;;1.80;0.80;;;;;;;24.68;55.29;152245.81;5136570;27;20190;-65
2022/10/13 09:28:46;;;;;;;3.78;0.65;;;;;;;24.80;55.54;152276.47;5135952;27;20194;-64
2022/10/13 09:31:23;;;;;;;2.47;0.90;;;;;;;24.76;56.55;152266.25;5136047;27;20273;-64
2022/10/13 09:33:58;;;;;;;0.98;0.80;;;;;;;24.26;56.62;152139.84;5133993;27;20244;-65
2022/10/13 09:36:25;;;;;;;0.82;0.50;;;;;;;24.27;56.84;152141.13;5131994;27;20568;-64
2022/10/13 09:39:11;;;;;;;1.95;0.50;;;;;;;23.80;58.64;152022.34;5135710;27;20201;-64
2022/10/13 09:41:40;;;;;;;3.55;0.60;;;;;;;23.50;59.44;151948.31;5135810;27;20252;-64
2022/10/13 09:44:13;;;;;;;1.85;0.50;;;;;;;23.07;60.39;151838.53;5135862;27;20229;-64
2022/10/13 09:46:48;;;;;;;0.63;0.60;;;;;;;22.74;64.01;151755.63;5135376;27;20189;-64
2022/10/13 09:49:37;;;;;;;1.85;0.60;;;;;;;22.74;65.38;151755.63;5135447;27;20186;-65
2022/10/13 09:52:07;;;;;;;0.40;0.40;;;;;;;22.80;64.66;151769.63;5135600;27;20179;-66
2022/10/13 09:54:45;;;;;;;2.25;0.80;;;;;;;23.13;62.31;151855.09;5135519;27;20295;-65
2022/10/13 09:57:19;;;;;;;3.33;0.63;;;;;;;23.14;60.41;151856.38;5134623;27;20182;-64
2022/10/13 09:59:49;;;;;;;0.43;0.40;;;;;;;22.88;59.82;151791.31;5135246;27;20217;-64
2022/10/13 10:02:31;;;;;;;0.40;0.40;;;;;;;22.45;62.23;151682.84;5135681;27;20659;-65
2022/10/13 10:05:05;;;;;;;1.00;0.80;;;;;;;22.52;61.45;151700.72;5134892;27;20178;-65
2022/10/13 10:07:33;;;;;;;3.13;0.55;;;;;;;22.48;62.24;151690.53;5134922;27;20182;-66
2022/10/13 10:10:05;;;;;;;1.05;0.50;;;;;;;22.56;63.58;151709.66;5134787;27;20186;-65
2022/10/13 10:12:36;;;;;;;3.90;0.60;;;;;;;23.01;63.79;151823.19;5135173;27;20190;-66
2022/10/13 10:15:23;;;;;;;2.47;0.90;;;;;;;22.92;65.35;151801.50;5134592;27;20209;-65
2022/10/13 10:17:56;;;;;;;3.65;0.75;;;;;;;23.21;64.78;151874.28;5134839;27;20282;-65
2022/10/13 10:20:40;;;;;;;2.35;0.52;;;;;;;23.25;64.89;151884.47;5134493;27;20298;-66
2022/10/13 10:23:14;;;;;;;2.90;0.77;;;;;;;23.40;65.61;151922.72;5129664;27;20198;-66
2022/10/13 10:25:45;;;;;;;3.90;0.80;;;;;;;23.54;66.49;151958.53;5121927;27;20209;-66
2022/10/13 10:28:31;;;;;;;2.10;1.13;;;;;;;23.53;67.65;151955.97;5127394;27;20192;-64
2022/10/13 10:31:05;;;;;;;2.72;0.90;;;;;;;23.12;69.18;151852.56;5125031;27;20233;-64
2022/10/13 10:33:43;;;;;;;3.10;1.05;;;;;;;23.33;71.39;151903.59;5118600;27;20209;-66
2022/10/13 10:36:15;;;;;;;4.68;1.00;;;;;;;23.46;70.31;151936.84;5125131;27;20202;-64
2022/10/13 10:38:48;;;;;;;4.18;1.13;;;;;;;23.33;72.12;151904.88;5134795;27;20186;-64
2022/10/13 10:41:33;;;;;;;2.05;0.95;;;;;;;23.32;73.32;151901.03;5135147;27;20191;-65
2022/10/13 10:44:04;;;;;;;0.80;0.80;;;;;;;23.23;74.20;151879.34;5134319;27;20187;-65
2022/10/13 10:46:35;;;;;;;1.27;0.80;;;;;;;23.22;73.82;151878.06;5134566;27;20214;-64
2022/10/13 10:49:12;;;;;;;1.80;1.10;;;;;;;23.51;74.26;151950.84;5134518;27;20186;-64
2022/10/13 10:51:39;;;;;;;2.15;0.90;;;;;;;23.66;72.65;151987.88;5134846;27;20189;-63
2022/10/13 10:54:19;;;;;;;0.90;0.90;;;;;;;23.48;74.44;151941.91;5133507;27;20203;-64
2022/10/13 10:56:53;;;;;;;3.08;0.85;;;;;;;23.78;74.38;152017.22;5134253;27;20193;-64
2022/10/13 10:59:31;;;;;;;1.63;0.80;;;;;;;23.79;72.87;152019.78;5134035;27;20236;-63
2022/10/13 11:02:13;;;;;;;0.90;0.90;;;;;;;23.56;73.92;151962.31;5134729;27;20273;-64
2022/10/13 11:04:42;;;;;;;4.00;1.40;;;;;;;23.16;76.95;151862.78;5117004;27;20186;-65
2022/10/13 11:07:34;;;;;;;1.58;0.80;;;;;;;22.47;81.97;151686.69;5134083;27;20191;-65
2022/10/13 11:10:20;;;;;;;7.72;0.93;;;;;;;21.98;87.12;151564.25;5133213;27;20191;-64
2022/10/13 11:13:16;;;;;;;1.88;1.08;;;;;;;21.36;95.42;151408.72;5123229;27;20656;-64
2022/10/13 11:15:44;;;;;;;1.92;0.90;;;;;;;21.03;99.64;151324.59;5118655;27;20222;-65
2022/10/13 11:18:48;;;;;;;5.70;0.90;;;;;;;20.74;100.00;151252.00;5129434;27;20255;-65
2022/10/13 11:21:15;;;;;;;1.83;0.77;;;;;;;20.04;100.00;151074.91;5133808;27;20236;-66
2022/10/13 11:23:49;;;;;;;3.73;0.87;;;;;;;20.32;100.00;151146.31;5133855;27;20182;-66
2022/10/13 11:26:29;;;;;;;2.97;0.97;;;;;;;20.23;100.00;151122.03;5133904;27;20183;-66
2022/10/13 11:28:59;;;;;;;2.97;1.00;;;;;;;19.98;100.00;151060.94;5134116;27;20174;-65
2022/10/13 11:31:29;;;;;;;4.20;1.07;;;;;;;20.38;100.00;151160.28;5133113;27;20182;-66
2022/10/13 11:33:58;;;;;;;0.90;0.80;;;;;;;20.40;100.00;151165.38;5132562;27;20187;-65